sensor_id;sensor_type;location;lat;lon;timestamp;P1;durP1;ratioP1;P2;durP2;ratioP2
20207;SDS011;10263;48.716;8.760;2023-08-06T00:00:30;2.93;;;2.23;;
20207;SDS011;10263;48.716;8.760;2023-08-06T00:02:57;2.57;;;2.37;;
20207;SDS011;10263;48.716;8.760;2023-08-06T00:05:24;2.73;;;2.50;;
20207;SDS011;10263;48.716;8.760;2023-08-06T00:07:50;2.87;;;2.50;;
20207;SDS011;10263;48.716;8.760;2023-08-06T00:10:17;3.03;;;2.77;;
20207;SDS011;10263;48.716;8.760;2023-08-06T00:12:44;2.50;;;2.30;;
20207;SDS011;10263;48.716;8.760;2023-08-06T00:15:11;2.80;;;2.60;;
20207;SDS011;10263;48.716;8.760;2023-08-06T00:17:39;3.90;;;2.40;;
20207;SDS011;10263;48.716;8.760;2023-08-06T00:20:07;2.60;;;2.20;;
20207;SDS011;10263;48.716;8.760;2023-08-06T00:22:35;2.80;;;2.00;;
20207;SDS011;10263;48.716;8.760;2023-08-06T00:25:04;2.90;;;2.33;;
20207;SDS011;10263;48.716;8.760;2023-08-06T00:27:31;2.90;;;2.40;;
20207;SDS011;10263;48.716;8.760;2023-08-06T00:29:58;2.50;;;2.30;;
20207;SDS011;10263;48.716;8.760;2023-08-06T00:32:25;2.63;;;2.10;;
20207;SDS011;10263;48.716;8.760;2023-08-06T00:34:53;2.50;;;2.30;;
20207;SDS011;10263;48.716;8.760;2023-08-06T00:37:20;2.40;;;2.20;;
20207;SDS011;10263;48.716;8.760;2023-08-06T00:39:47;2.67;;;2.40;;
20207;SDS011;10263;48.716;8.760;2023-08-06T00:42:13;4.10;;;2.40;;
20207;SDS011;10263;48.716;8.760;2023-08-06T00:44:41;2.87;;;2.53;;
20207;SDS011;10263;48.716;8.760;2023-08-06T00:47:08;2.33;;;2.10;;
20207;SDS011;10263;48.716;8.760;2023-08-06T00:49:36;2.53;;;2.33;;
20207;SDS011;10263;48.716;8.760;2023-08-06T00:52:05;2.83;;;2.60;;
20207;SDS011;10263;48.716;8.760;2023-08-06T00:54:36;3.20;;;2.33;;
20207;SDS011;10263;48.716;8.760;2023-08-06T00:57:03;2.37;;;2.17;;
20207;SDS011;10263;48.716;8.760;2023-08-06T00:59:30;2.57;;;2.17;;
20207;SDS011;10263;48.716;8.760;2023-08-06T01:01:57;2.80;;;2.50;;
20207;SDS011;10263;48.716;8.760;2023-08-06T01:04:25;3.43;;;2.43;;
20207;SDS011;10263;48.716;8.760;2023-08-06T01:06:56;19.67;;;3.37;;
20207;SDS011;10263;48.716;8.760;2023-08-06T01:09:35;7.80;;;2.67;;
20207;SDS011;10263;48.716;8.760;2023-08-06T01:12:14;55.80;;;5.20;;
20207;SDS011;10263;48.716;8.760;2023-08-06T01:14:53;125.13;;;11.30;;
20207;SDS011;10263;48.716;8.760;2023-08-06T01:17:26;55.63;;;5.30;;
20207;SDS011;10263;48.716;8.760;2023-08-06T01:19:55;21.47;;;3.80;;
20207;SDS011;10263;48.716;8.760;2023-08-06T01:22:23;20.13;;;3.50;;
20207;SDS011;10263;48.716;8.760;2023-08-06T01:24:50;16.97;;;3.47;;
20207;SDS011;10263;48.716;8.760;2023-08-06T01:27:19;6.37;;;3.07;;
20207;SDS011;10263;48.716;8.760;2023-08-06T01:29:55;6.63;;;3.20;;
20207;SDS011;10263;48.716;8.760;2023-08-06T01:32:29;15.90;;;3.27;;
20207;SDS011;10263;48.716;8.760;2023-08-06T01:34:59;8.27;;;3.17;;
20207;SDS011;10263;48.716;8.760;2023-08-06T01:37:28;3.83;;;2.90;;
20207;SDS011;10263;48.716;8.760;2023-08-06T01:39:55;3.37;;;3.07;;
20207;SDS011;10263;48.716;8.760;2023-08-06T01:42:23;2.97;;;2.67;;
20207;SDS011;10263;48.716;8.760;2023-08-06T01:44:50;3.10;;;2.90;;
20207;SDS011;10263;48.716;8.760;2023-08-06T01:47:18;3.03;;;2.73;;
20207;SDS011;10263;48.716;8.760;2023-08-06T01:49:44;3.20;;;2.90;;
20207;SDS011;10263;48.716;8.760;2023-08-06T01:52:11;3.37;;;2.80;;
20207;SDS011;10263;48.716;8.760;2023-08-06T01:54:40;2.70;;;2.50;;
20207;SDS011;10263;48.716;8.760;2023-08-06T01:57:06;3.50;;;2.87;;
20207;SDS011;10263;48.716;8.760;2023-08-06T01:59:33;4.53;;;2.87;;
20207;SDS011;10263;48.716;8.760;2023-08-06T02:02:01;3.03;;;2.80;;
20207;SDS011;10263;48.716;8.760;2023-08-06T02:04:28;2.77;;;2.30;;
20207;SDS011;10263;48.716;8.760;2023-08-06T02:06:55;3.23;;;2.93;;
20207;SDS011;10263;48.716;8.760;2023-08-06T02:09:21;3.10;;;2.80;;
20207;SDS011;10263;48.716;8.760;2023-08-06T02:11:50;2.97;;;2.67;;
20207;SDS011;10263;48.716;8.760;2023-08-06T02:14:16;4.23;;;2.77;;
20207;SDS011;10263;48.716;8.760;2023-08-06T02:16:44;2.90;;;2.70;;
20207;SDS011;10263;48.716;8.760;2023-08-06T02:19:10;2.77;;;2.57;;
20207;SDS011;10263;48.716;8.760;2023-08-06T02:21:37;3.07;;;2.83;;
20207;SDS011;10263;48.716;8.760;2023-08-06T02:24:04;3.40;;;3.10;;
20207;SDS011;10263;48.716;8.760;2023-08-06T02:26:31;3.20;;;2.53;;
20207;SDS011;10263;48.716;8.760;2023-08-06T02:28:59;2.97;;;2.73;;
20207;SDS011;10263;48.716;8.760;2023-08-06T02:31:25;2.60;;;2.40;;
20207;SDS011;10263;48.716;8.760;2023-08-06T02:33:52;3.43;;;2.63;;
20207;SDS011;10263;48.716;8.760;2023-08-06T02:36:20;4.13;;;2.37;;
20207;SDS011;10263;48.716;8.760;2023-08-06T02:38:46;4.27;;;2.60;;
20207;SDS011;10263;48.716;8.760;2023-08-06T02:41:13;2.87;;;2.27;;
20207;SDS011;10263;48.716;8.760;2023-08-06T02:43:40;3.73;;;2.90;;
20207;SDS011;10263;48.716;8.760;2023-08-06T02:46:09;3.63;;;3.00;;
20207;SDS011;10263;48.716;8.760;2023-08-06T02:48:34;2.80;;;2.60;;
20207;SDS011;10263;48.716;8.760;2023-08-06T02:51:01;4.37;;;2.50;;
20207;SDS011;10263;48.716;8.760;2023-08-06T02:53:30;3.43;;;2.77;;
20207;SDS011;10263;48.716;8.760;2023-08-06T02:56:00;3.17;;;2.87;;
20207;SDS011;10263;48.716;8.760;2023-08-06T02:58:36;3.00;;;2.70;;
20207;SDS011;10263;48.716;8.760;2023-08-06T03:01:16;2.80;;;2.60;;
20207;SDS011;10263;48.716;8.760;2023-08-06T03:03:51;4.33;;;2.50;;
20207;SDS011;10263;48.716;8.760;2023-08-06T03:06:24;3.20;;;2.10;;
20207;SDS011;10263;48.716;8.760;2023-08-06T03:08:53;2.77;;;2.57;;
20207;SDS011;10263;48.716;8.760;2023-08-06T03:11:20;3.67;;;2.50;;
20207;SDS011;10263;48.716;8.760;2023-08-06T03:13:54;5.13;;;2.50;;
20207;SDS011;10263;48.716;8.760;2023-08-06T03:16:22;3.23;;;2.40;;
20207;SDS011;10263;48.716;8.760;2023-08-06T03:18:49;2.43;;;2.13;;
20207;SDS011;10263;48.716;8.760;2023-08-06T03:21:15;2.30;;;2.10;;
20207;SDS011;10263;48.716;8.760;2023-08-06T03:23:43;2.10;;;1.90;;
20207;SDS011;10263;48.716;8.760;2023-08-06T03:26:13;2.53;;;2.30;;
20207;SDS011;10263;48.716;8.760;2023-08-06T03:28:40;3.50;;;2.30;;
20207;SDS011;10263;48.716;8.760;2023-08-06T03:31:07;5.30;;;2.70;;
20207;SDS011;10263;48.716;8.760;2023-08-06T03:33:40;2.30;;;2.10;;
20207;SDS011;10263;48.716;8.760;2023-08-06T03:36:12;3.43;;;2.93;;
20207;SDS011;10263;48.716;8.760;2023-08-06T03:38:40;3.00;;;2.70;;
20207;SDS011;10263;48.716;8.760;2023-08-06T03:41:09;3.00;;;2.40;;
20207;SDS011;10263;48.716;8.760;2023-08-06T03:43:36;3.30;;;2.43;;
20207;SDS011;10263;48.716;8.760;2023-08-06T03:46:07;3.40;;;2.37;;
20207;SDS011;10263;48.716;8.760;2023-08-06T03:48:34;2.53;;;2.00;;
20207;SDS011;10263;48.716;8.760;2023-08-06T03:51:02;3.60;;;2.50;;
20207;SDS011;10263;48.716;8.760;2023-08-06T03:53:29;3.47;;;2.87;;
20207;SDS011;10263;48.716;8.760;2023-08-06T03:55:57;2.80;;;2.20;;
20207;SDS011;10263;48.716;8.760;2023-08-06T03:58:25;3.57;;;2.23;;
20207;SDS011;10263;48.716;8.760;2023-08-06T04:00:57;4.37;;;2.33;;
20207;SDS011;10263;48.716;8.760;2023-08-06T04:03:25;2.87;;;2.50;;
20207;SDS011;10263;48.716;8.760;2023-08-06T04:05:52;3.43;;;2.40;;
20207;SDS011;10263;48.716;8.760;2023-08-06T04:08:20;3.77;;;2.30;;
20207;SDS011;10263;48.716;8.760;2023-08-06T04:10:49;4.47;;;2.43;;
20207;SDS011;10263;48.716;8.760;2023-08-06T04:13:15;3.57;;;2.70;;
20207;SDS011;10263;48.716;8.760;2023-08-06T04:15:42;2.60;;;2.40;;
20207;SDS011;10263;48.716;8.760;2023-08-06T04:18:09;2.07;;;1.87;;
20207;SDS011;10263;48.716;8.760;2023-08-06T04:20:41;2.30;;;1.93;;
20207;SDS011;10263;48.716;8.760;2023-08-06T04:23:09;1.73;;;1.53;;
20207;SDS011;10263;48.716;8.760;2023-08-06T04:25:37;4.27;;;1.63;;
20207;SDS011;10263;48.716;8.760;2023-08-06T04:28:04;2.43;;;1.37;;
20207;SDS011;10263;48.716;8.760;2023-08-06T04:30:32;2.70;;;1.57;;
20207;SDS011;10263;48.716;8.760;2023-08-06T04:32:59;2.07;;;1.30;;
20207;SDS011;10263;48.716;8.760;2023-08-06T04:35:26;4.50;;;1.40;;
20207;SDS011;10263;48.716;8.760;2023-08-06T04:37:53;2.00;;;1.43;;
20207;SDS011;10263;48.716;8.760;2023-08-06T04:40:20;1.80;;;1.23;;
20207;SDS011;10263;48.716;8.760;2023-08-06T04:42:48;1.33;;;1.10;;
20207;SDS011;10263;48.716;8.760;2023-08-06T04:45:15;1.97;;;1.00;;
20207;SDS011;10263;48.716;8.760;2023-08-06T04:47:42;2.43;;;1.17;;
20207;SDS011;10263;48.716;8.760;2023-08-06T04:50:09;1.30;;;1.20;;
20207;SDS011;10263;48.716;8.760;2023-08-06T04:52:36;1.37;;;1.10;;
20207;SDS011;10263;48.716;8.760;2023-08-06T04:55:04;1.43;;;1.30;;
20207;SDS011;10263;48.716;8.760;2023-08-06T04:57:31;1.37;;;1.10;;
20207;SDS011;10263;48.716;8.760;2023-08-06T04:59:59;1.70;;;1.60;;
20207;SDS011;10263;48.716;8.760;2023-08-06T05:02:26;1.63;;;1.03;;
20207;SDS011;10263;48.716;8.760;2023-08-06T05:04:53;1.10;;;1.00;;
20207;SDS011;10263;48.716;8.760;2023-08-06T05:07:19;0.90;;;0.90;;
20207;SDS011;10263;48.716;8.760;2023-08-06T05:09:46;1.00;;;0.90;;
20207;SDS011;10263;48.716;8.760;2023-08-06T05:12:13;3.67;;;1.00;;
20207;SDS011;10263;48.716;8.760;2023-08-06T05:14:40;3.80;;;1.07;;
20207;SDS011;10263;48.716;8.760;2023-08-06T05:17:08;1.23;;;0.70;;
20207;SDS011;10263;48.716;8.760;2023-08-06T05:19:34;3.27;;;0.77;;
20207;SDS011;10263;48.716;8.760;2023-08-06T05:22:01;1.47;;;0.77;;
20207;SDS011;10263;48.716;8.760;2023-08-06T05:24:28;1.23;;;0.70;;
20207;SDS011;10263;48.716;8.760;2023-08-06T05:26:55;2.10;;;0.83;;
20207;SDS011;10263;48.716;8.760;2023-08-06T05:29:21;1.20;;;0.80;;
20207;SDS011;10263;48.716;8.760;2023-08-06T05:31:48;0.70;;;0.70;;
20207;SDS011;10263;48.716;8.760;2023-08-06T05:34:16;1.23;;;0.80;;
20207;SDS011;10263;48.716;8.760;2023-08-06T05:36:43;1.50;;;0.90;;
20207;SDS011;10263;48.716;8.760;2023-08-06T05:39:10;1.60;;;1.00;;
20207;SDS011;10263;48.716;8.760;2023-08-06T05:41:36;1.50;;;0.67;;
20207;SDS011;10263;48.716;8.760;2023-08-06T05:44:03;1.40;;;0.80;;
20207;SDS011;10263;48.716;8.760;2023-08-06T05:46:30;1.03;;;0.90;;
20207;SDS011;10263;48.716;8.760;2023-08-06T05:48:57;2.63;;;1.07;;
20207;SDS011;10263;48.716;8.760;2023-08-06T05:51:26;1.03;;;0.80;;
20207;SDS011;10263;48.716;8.760;2023-08-06T05:53:55;2.60;;;0.90;;
20207;SDS011;10263;48.716;8.760;2023-08-06T05:56:22;1.23;;;0.90;;
20207;SDS011;10263;48.716;8.760;2023-08-06T05:58:48;1.87;;;0.73;;
20207;SDS011;10263;48.716;8.760;2023-08-06T06:01:18;1.13;;;0.80;;
20207;SDS011;10263;48.716;8.760;2023-08-06T06:03:44;0.90;;;0.73;;
20207;SDS011;10263;48.716;8.760;2023-08-06T06:06:12;0.70;;;0.70;;
20207;SDS011;10263;48.716;8.760;2023-08-06T06:08:40;0.97;;;0.60;;
20207;SDS011;10263;48.716;8.760;2023-08-06T06:11:06;0.53;;;0.53;;
20207;SDS011;10263;48.716;8.760;2023-08-06T06:13:33;1.53;;;0.50;;
20207;SDS011;10263;48.716;8.760;2023-08-06T06:16:00;0.57;;;0.53;;
20207;SDS011;10263;48.716;8.760;2023-08-06T06:18:27;0.50;;;0.50;;
20207;SDS011;10263;48.716;8.760;2023-08-06T06:20:53;0.60;;;0.43;;
20207;SDS011;10263;48.716;8.760;2023-08-06T06:23:20;0.63;;;0.60;;
20207;SDS011;10263;48.716;8.760;2023-08-06T06:25:49;1.73;;;0.60;;
20207;SDS011;10263;48.716;8.760;2023-08-06T06:28:16;1.10;;;0.70;;
20207;SDS011;10263;48.716;8.760;2023-08-06T06:30:43;0.60;;;0.60;;
20207;SDS011;10263;48.716;8.760;2023-08-06T06:33:10;1.60;;;0.40;;
20207;SDS011;10263;48.716;8.760;2023-08-06T06:35:37;1.67;;;0.43;;
20207;SDS011;10263;48.716;8.760;2023-08-06T06:38:03;0.90;;;0.50;;
20207;SDS011;10263;48.716;8.760;2023-08-06T06:40:30;1.47;;;0.50;;
20207;SDS011;10263;48.716;8.760;2023-08-06T06:42:59;0.80;;;0.40;;
20207;SDS011;10263;48.716;8.760;2023-08-06T06:45:26;2.90;;;0.47;;
20207;SDS011;10263;48.716;8.760;2023-08-06T06:47:53;1.00;;;0.40;;
20207;SDS011;10263;48.716;8.760;2023-08-06T06:50:20;0.30;;;0.30;;
20207;SDS011;10263;48.716;8.760;2023-08-06T06:52:47;1.43;;;0.40;;
20207;SDS011;10263;48.716;8.760;2023-08-06T06:55:14;0.47;;;0.30;;
20207;SDS011;10263;48.716;8.760;2023-08-06T06:57:41;0.30;;;0.30;;
20207;SDS011;10263;48.716;8.760;2023-08-06T07:00:09;0.97;;;0.43;;
20207;SDS011;10263;48.716;8.760;2023-08-06T07:02:37;0.30;;;0.30;;
20207;SDS011;10263;48.716;8.760;2023-08-06T07:05:04;0.40;;;0.40;;
20207;SDS011;10263;48.716;8.760;2023-08-06T07:07:32;0.90;;;0.30;;
20207;SDS011;10263;48.716;8.760;2023-08-06T07:10:00;0.30;;;0.30;;
20207;SDS011;10263;48.716;8.760;2023-08-06T07:12:27;0.30;;;0.30;;
20207;SDS011;10263;48.716;8.760;2023-08-06T07:14:54;0.40;;;0.40;;
20207;SDS011;10263;48.716;8.760;2023-08-06T07:17:22;0.87;;;0.40;;
20207;SDS011;10263;48.716;8.760;2023-08-06T07:19:49;0.50;;;0.50;;
20207;SDS011;10263;48.716;8.760;2023-08-06T07:22:15;2.83;;;0.60;;
20207;SDS011;10263;48.716;8.760;2023-08-06T07:24:42;0.93;;;0.47;;
20207;SDS011;10263;48.716;8.760;2023-08-06T07:27:09;0.40;;;0.40;;
20207;SDS011;10263;48.716;8.760;2023-08-06T07:29:36;0.57;;;0.40;;
20207;SDS011;10263;48.716;8.760;2023-08-06T07:32:03;0.30;;;0.30;;
20207;SDS011;10263;48.716;8.760;2023-08-06T07:34:31;0.53;;;0.47;;
20207;SDS011;10263;48.716;8.760;2023-08-06T07:36:58;0.30;;;0.30;;
20207;SDS011;10263;48.716;8.760;2023-08-06T07:39:25;0.97;;;0.30;;
20207;SDS011;10263;48.716;8.760;2023-08-06T07:41:53;1.83;;;0.30;;
20207;SDS011;10263;48.716;8.760;2023-08-06T07:44:20;0.57;;;0.40;;
20207;SDS011;10263;48.716;8.760;2023-08-06T07:46:47;0.88;;;0.30;;
20207;SDS011;10263;48.716;8.760;2023-08-06T07:49:14;0.30;;;0.30;;
20207;SDS011;10263;48.716;8.760;2023-08-06T07:51:42;0.20;;;0.20;;
20207;SDS011;10263;48.716;8.760;2023-08-06T07:54:08;0.20;;;0.20;;
20207;SDS011;10263;48.716;8.760;2023-08-06T07:56:35;0.28;;;0.28;;
20207;SDS011;10263;48.716;8.760;2023-08-06T07:59:02;0.40;;;0.20;;
20207;SDS011;10263;48.716;8.760;2023-08-06T08:01:29;0.20;;;0.20;;
20207;SDS011;10263;48.716;8.760;2023-08-06T08:03:56;0.43;;;0.30;;
20207;SDS011;10263;48.716;8.760;2023-08-06T08:06:23;0.30;;;0.30;;
20207;SDS011;10263;48.716;8.760;2023-08-06T08:08:51;0.30;;;0.30;;
20207;SDS011;10263;48.716;8.760;2023-08-06T08:11:17;1.40;;;0.40;;
20207;SDS011;10263;48.716;8.760;2023-08-06T08:13:44;0.80;;;0.60;;
20207;SDS011;10263;48.716;8.760;2023-08-06T08:16:11;0.20;;;0.20;;
20207;SDS011;10263;48.716;8.760;2023-08-06T08:18:38;0.63;;;0.30;;
20207;SDS011;10263;48.716;8.760;2023-08-06T08:21:04;0.30;;;0.30;;
20207;SDS011;10263;48.716;8.760;2023-08-06T08:23:31;0.50;;;0.30;;
20207;SDS011;10263;48.716;8.760;2023-08-06T08:25:59;0.30;;;0.30;;
20207;SDS011;10263;48.716;8.760;2023-08-06T08:28:27;1.33;;;0.37;;
20207;SDS011;10263;48.716;8.760;2023-08-06T08:30:54;0.20;;;0.20;;
20207;SDS011;10263;48.716;8.760;2023-08-06T08:33:21;0.43;;;0.30;;
20207;SDS011;10263;48.716;8.760;2023-08-06T08:35:48;0.50;;;0.30;;
20207;SDS011;10263;48.716;8.760;2023-08-06T08:38:14;0.30;;;0.30;;
20207;SDS011;10263;48.716;8.760;2023-08-06T08:40:43;0.23;;;0.23;;
20207;SDS011;10263;48.716;8.760;2023-08-06T08:43:14;0.40;;;0.30;;
20207;SDS011;10263;48.716;8.760;2023-08-06T08:45:42;0.30;;;0.30;;
20207;SDS011;10263;48.716;8.760;2023-08-06T08:48:10;0.30;;;0.30;;
20207;SDS011;10263;48.716;8.760;2023-08-06T08:50:39;0.20;;;0.20;;
20207;SDS011;10263;48.716;8.760;2023-08-06T08:53:06;0.37;;;0.37;;
20207;SDS011;10263;48.716;8.760;2023-08-06T08:55:35;0.30;;;0.30;;
20207;SDS011;10263;48.716;8.760;2023-08-06T08:58:03;0.27;;;0.27;;
20207;SDS011;10263;48.716;8.760;2023-08-06T09:00:31;0.30;;;0.30;;
20207;SDS011;10263;48.716;8.760;2023-08-06T09:02:58;0.20;;;0.20;;
20207;SDS011;10263;48.716;8.760;2023-08-06T09:05:26;0.40;;;0.20;;
20207;SDS011;10263;48.716;8.760;2023-08-06T09:07:56;0.10;;;0.10;;
20207;SDS011;10263;48.716;8.760;2023-08-06T09:10:29;0.30;;;0.30;;
20207;SDS011;10263;48.716;8.760;2023-08-06T09:12:56;0.30;;;0.30;;
20207;SDS011;10263;48.716;8.760;2023-08-06T09:15:26;0.30;;;0.20;;
20207;SDS011;10263;48.716;8.760;2023-08-06T09:17:54;1.20;;;0.20;;
20207;SDS011;10263;48.716;8.760;2023-08-06T09:20:21;0.60;;;0.30;;
20207;SDS011;10263;48.716;8.760;2023-08-06T09:22:48;0.20;;;0.20;;
20207;SDS011;10263;48.716;8.760;2023-08-06T09:25:20;0.40;;;0.37;;
20207;SDS011;10263;48.716;8.760;2023-08-06T09:27:49;0.53;;;0.40;;
20207;SDS011;10263;48.716;8.760;2023-08-06T09:30:28;0.23;;;0.23;;
20207;SDS011;10263;48.716;8.760;2023-08-06T09:32:57;0.40;;;0.30;;
20207;SDS011;10263;48.716;8.760;2023-08-06T09:35:24;0.30;;;0.30;;
20207;SDS011;10263;48.716;8.760;2023-08-06T09:37:53;0.47;;;0.30;;
20207;SDS011;10263;48.716;8.760;2023-08-06T09:40:26;0.20;;;0.20;;
20207;SDS011;10263;48.716;8.760;2023-08-06T09:42:54;0.30;;;0.30;;
20207;SDS011;10263;48.716;8.760;2023-08-06T09:45:21;0.20;;;0.20;;
20207;SDS011;10263;48.716;8.760;2023-08-06T09:47:48;0.20;;;0.20;;
20207;SDS011;10263;48.716;8.760;2023-08-06T09:50:17;0.20;;;0.20;;
20207;SDS011;10263;48.716;8.760;2023-08-06T09:52:45;0.32;;;0.20;;
20207;SDS011;10263;48.716;8.760;2023-08-06T09:55:14;0.33;;;0.33;;
20207;SDS011;10263;48.716;8.760;2023-08-06T09:57:41;0.37;;;0.37;;
20207;SDS011;10263;48.716;8.760;2023-08-06T10:00:08;0.70;;;0.30;;
20207;SDS011;10263;48.716;8.760;2023-08-06T10:02:40;0.40;;;0.40;;
20207;SDS011;10263;48.716;8.760;2023-08-06T10:05:07;0.63;;;0.30;;
20207;SDS011;10263;48.716;8.760;2023-08-06T10:07:36;0.30;;;0.30;;
20207;SDS011;10263;48.716;8.760;2023-08-06T10:10:04;0.23;;;0.23;;
20207;SDS011;10263;48.716;8.760;2023-08-06T10:12:32;0.40;;;0.40;;
20207;SDS011;10263;48.716;8.760;2023-08-06T10:15:04;0.40;;;0.40;;
20207;SDS011;10263;48.716;8.760;2023-08-06T10:17:36;0.38;;;0.38;;
20207;SDS011;10263;48.716;8.760;2023-08-06T10:20:03;0.25;;;0.25;;
20207;SDS011;10263;48.716;8.760;2023-08-06T10:22:32;0.35;;;0.30;;
20207;SDS011;10263;48.716;8.760;2023-08-06T10:25:01;1.17;;;0.32;;
20207;SDS011;10263;48.716;8.760;2023-08-06T10:27:31;0.25;;;0.25;;
20207;SDS011;10263;48.716;8.760;2023-08-06T10:32:48;0.73;;;0.40;;
20207;SDS011;10263;48.716;8.760;2023-08-06T10:35:28;0.30;;;0.30;;
20207;SDS011;10263;48.716;8.760;2023-08-06T10:37:59;0.70;;;0.30;;
20207;SDS011;10263;48.716;8.760;2023-08-06T10:40:30;1.30;;;1.20;;
20207;SDS011;10263;48.716;8.760;2023-08-06T10:42:58;0.30;;;0.30;;
20207;SDS011;10263;48.716;8.760;2023-08-06T10:45:26;0.95;;;0.30;;
20207;SDS011;10263;48.716;8.760;2023-08-06T10:47:54;0.80;;;0.40;;
20207;SDS011;10263;48.716;8.760;2023-08-06T10:50:21;0.38;;;0.38;;
20207;SDS011;10263;48.716;8.760;2023-08-06T10:52:48;0.30;;;0.30;;
20207;SDS011;10263;48.716;8.760;2023-08-06T10:55:21;0.67;;;0.30;;
20207;SDS011;10263;48.716;8.760;2023-08-06T10:57:50;0.80;;;0.38;;
20207;SDS011;10263;48.716;8.760;2023-08-06T11:00:17;0.50;;;0.30;;
20207;SDS011;10263;48.716;8.760;2023-08-06T11:02:44;0.93;;;0.40;;
20207;SDS011;10263;48.716;8.760;2023-08-06T11:05:13;0.30;;;0.30;;
20207;SDS011;10263;48.716;8.760;2023-08-06T11:07:40;0.50;;;0.50;;
20207;SDS011;10263;48.716;8.760;2023-08-06T11:10:08;0.60;;;0.50;;
20207;SDS011;10263;48.716;8.760;2023-08-06T11:12:35;0.90;;;0.90;;
20207;SDS011;10263;48.716;8.760;2023-08-06T11:15:04;1.65;;;1.52;;
20207;SDS011;10263;48.716;8.760;2023-08-06T11:17:33;3.20;;;2.92;;
20207;SDS011;10263;48.716;8.760;2023-08-06T11:20:00;0.75;;;0.70;;
20207;SDS011;10263;48.716;8.760;2023-08-06T11:22:28;1.25;;;0.55;;
20207;SDS011;10263;48.716;8.760;2023-08-06T11:24:55;1.00;;;0.65;;
20207;SDS011;10263;48.716;8.760;2023-08-06T11:27:22;2.17;;;0.50;;
20207;SDS011;10263;48.716;8.760;2023-08-06T11:29:49;1.60;;;0.70;;
20207;SDS011;10263;48.716;8.760;2023-08-06T11:32:17;0.50;;;0.50;;
20207;SDS011;10263;48.716;8.760;2023-08-06T11:34:44;0.80;;;0.70;;
20207;SDS011;10263;48.716;8.760;2023-08-06T11:37:11;0.83;;;0.70;;
20207;SDS011;10263;48.716;8.760;2023-08-06T11:39:38;0.77;;;0.60;;
20207;SDS011;10263;48.716;8.760;2023-08-06T11:42:10;1.57;;;0.80;;
20207;SDS011;10263;48.716;8.760;2023-08-06T11:44:38;0.60;;;0.60;;
20207;SDS011;10263;48.716;8.760;2023-08-06T11:47:11;0.60;;;0.60;;
20207;SDS011;10263;48.716;8.760;2023-08-06T11:49:41;0.60;;;0.50;;
20207;SDS011;10263;48.716;8.760;2023-08-06T11:52:11;0.50;;;0.50;;
20207;SDS011;10263;48.716;8.760;2023-08-06T11:54:40;0.73;;;0.60;;
20207;SDS011;10263;48.716;8.760;2023-08-06T11:57:07;0.57;;;0.57;;
20207;SDS011;10263;48.716;8.760;2023-08-06T11:59:34;0.80;;;0.67;;
20207;SDS011;10263;48.716;8.760;2023-08-06T12:02:03;0.60;;;0.60;;
20207;SDS011;10263;48.716;8.760;2023-08-06T12:04:31;1.33;;;0.80;;
20207;SDS011;10263;48.716;8.760;2023-08-06T12:07:09;0.77;;;0.70;;
20207;SDS011;10263;48.716;8.760;2023-08-06T12:09:35;0.60;;;0.60;;
20207;SDS011;10263;48.716;8.760;2023-08-06T12:12:03;0.93;;;0.53;;
20207;SDS011;10263;48.716;8.760;2023-08-06T12:14:30;0.70;;;0.70;;
20207;SDS011;10263;48.716;8.760;2023-08-06T12:16:57;0.67;;;0.67;;
20207;SDS011;10263;48.716;8.760;2023-08-06T12:19:24;1.57;;;0.70;;
20207;SDS011;10263;48.716;8.760;2023-08-06T12:21:51;1.80;;;0.70;;
20207;SDS011;10263;48.716;8.760;2023-08-06T12:24:19;0.93;;;0.70;;
20207;SDS011;10263;48.716;8.760;2023-08-06T12:26:46;1.23;;;0.70;;
20207;SDS011;10263;48.716;8.760;2023-08-06T12:29:12;0.97;;;0.60;;
20207;SDS011;10263;48.716;8.760;2023-08-06T12:31:39;0.80;;;0.80;;
20207;SDS011;10263;48.716;8.760;2023-08-06T12:34:06;1.13;;;0.80;;
20207;SDS011;10263;48.716;8.760;2023-08-06T12:36:33;1.87;;;0.80;;
20207;SDS011;10263;48.716;8.760;2023-08-06T12:38:59;1.40;;;0.90;;
20207;SDS011;10263;48.716;8.760;2023-08-06T12:41:28;1.33;;;0.90;;
20207;SDS011;10263;48.716;8.760;2023-08-06T12:43:54;1.63;;;0.80;;
20207;SDS011;10263;48.716;8.760;2023-08-06T12:46:21;1.57;;;0.90;;
20207;SDS011;10263;48.716;8.760;2023-08-06T12:48:48;0.90;;;0.70;;
20207;SDS011;10263;48.716;8.760;2023-08-06T12:51:15;1.90;;;0.80;;
20207;SDS011;10263;48.716;8.760;2023-08-06T12:53:42;0.95;;;0.65;;
20207;SDS011;10263;48.716;8.760;2023-08-06T12:56:09;1.95;;;1.15;;
20207;SDS011;10263;48.716;8.760;2023-08-06T12:58:37;0.95;;;0.70;;
20207;SDS011;10263;48.716;8.760;2023-08-06T13:01:05;2.25;;;0.80;;
20207;SDS011;10263;48.716;8.760;2023-08-06T13:03:31;0.70;;;0.63;;
20207;SDS011;10263;48.716;8.760;2023-08-06T13:05:58;0.82;;;0.60;;
20207;SDS011;10263;48.716;8.760;2023-08-06T13:08:25;0.77;;;0.50;;
20207;SDS011;10263;48.716;8.760;2023-08-06T13:10:52;1.63;;;0.65;;
20207;SDS011;10263;48.716;8.760;2023-08-06T13:13:18;0.63;;;0.40;;
20207;SDS011;10263;48.716;8.760;2023-08-06T13:15:46;1.08;;;0.57;;
20207;SDS011;10263;48.716;8.760;2023-08-06T13:18:13;0.80;;;0.50;;
20207;SDS011;10263;48.716;8.760;2023-08-06T13:20:40;0.40;;;0.40;;
20207;SDS011;10263;48.716;8.760;2023-08-06T13:23:07;0.98;;;0.52;;
20207;SDS011;10263;48.716;8.760;2023-08-06T13:25:33;0.43;;;0.43;;
20207;SDS011;10263;48.716;8.760;2023-08-06T13:28:02;0.50;;;0.40;;
20207;SDS011;10263;48.716;8.760;2023-08-06T13:30:29;1.13;;;0.50;;
20207;SDS011;10263;48.716;8.760;2023-08-06T13:32:57;1.77;;;0.70;;
20207;SDS011;10263;48.716;8.760;2023-08-06T13:35:24;1.48;;;0.60;;
20207;SDS011;10263;48.716;8.760;2023-08-06T13:37:51;0.60;;;0.50;;
20207;SDS011;10263;48.716;8.760;2023-08-06T13:40:18;1.58;;;0.65;;
20207;SDS011;10263;48.716;8.760;2023-08-06T13:42:44;0.40;;;0.40;;
20207;SDS011;10263;48.716;8.760;2023-08-06T13:45:11;1.35;;;0.60;;
20207;SDS011;10263;48.716;8.760;2023-08-06T13:47:38;1.20;;;0.75;;
20207;SDS011;10263;48.716;8.760;2023-08-06T13:50:06;0.90;;;0.73;;
20207;SDS011;10263;48.716;8.760;2023-08-06T13:52:34;0.80;;;0.60;;
20207;SDS011;10263;48.716;8.760;2023-08-06T13:55:01;0.98;;;0.63;;
20207;SDS011;10263;48.716;8.760;2023-08-06T13:57:29;0.80;;;0.70;;
20207;SDS011;10263;48.716;8.760;2023-08-06T13:59:56;0.60;;;0.50;;
20207;SDS011;10263;48.716;8.760;2023-08-06T14:02:22;0.50;;;0.50;;
20207;SDS011;10263;48.716;8.760;2023-08-06T14:04:51;0.68;;;0.57;;
20207;SDS011;10263;48.716;8.760;2023-08-06T14:07:19;0.60;;;0.60;;
20207;SDS011;10263;48.716;8.760;2023-08-06T14:09:47;2.13;;;0.77;;
20207;SDS011;10263;48.716;8.760;2023-08-06T14:12:14;1.15;;;0.80;;
20207;SDS011;10263;48.716;8.760;2023-08-06T14:14:41;0.70;;;0.70;;
20207;SDS011;10263;48.716;8.760;2023-08-06T14:17:08;0.65;;;0.63;;
20207;SDS011;10263;48.716;8.760;2023-08-06T14:19:34;0.50;;;0.50;;
20207;SDS011;10263;48.716;8.760;2023-08-06T14:22:01;0.98;;;0.57;;
20207;SDS011;10263;48.716;8.760;2023-08-06T14:24:29;0.80;;;0.73;;
20207;SDS011;10263;48.716;8.760;2023-08-06T14:26:56;0.85;;;0.55;;
20207;SDS011;10263;48.716;8.760;2023-08-06T14:29:24;0.73;;;0.60;;
20207;SDS011;10263;48.716;8.760;2023-08-06T14:31:51;0.73;;;0.70;;
20207;SDS011;10263;48.716;8.760;2023-08-06T14:34:18;1.17;;;0.60;;
20207;SDS011;10263;48.716;8.760;2023-08-06T14:36:45;0.50;;;0.50;;
20207;SDS011;10263;48.716;8.760;2023-08-06T14:39:11;0.73;;;0.50;;
20207;SDS011;10263;48.716;8.760;2023-08-06T14:41:39;0.50;;;0.50;;
20207;SDS011;10263;48.716;8.760;2023-08-06T14:44:06;0.80;;;0.60;;
20207;SDS011;10263;48.716;8.760;2023-08-06T14:46:33;0.60;;;0.60;;
20207;SDS011;10263;48.716;8.760;2023-08-06T14:49:00;0.77;;;0.60;;
20207;SDS011;10263;48.716;8.760;2023-08-06T14:51:26;1.25;;;0.80;;
20207;SDS011;10263;48.716;8.760;2023-08-06T14:53:54;0.60;;;0.60;;